Time,TemperatureF,DewpointF,PressureIn,WindDirection,WindDirectionDegrees,WindSpeedMPH,WindSpeedGustMPH,Humidity,HourlyPrecipIn,Conditions,Clouds,dailyrainin,SoftwareType,DateUTC
2014-07-26 00:03:00,75.9,74.0,29.92,SSE,168,3.9,8.1,94,0.00,,CLR,0.00,VWS V14.01,2014-07-26 05:03:00,
2014-07-26 00:08:00,75.7,73.8,29.92,SSW,198,3.9,6.4,94,0.00,,CLR,0.00,VWS V14.01,2014-07-26 05:08:00,
2014-07-26 00:13:00,75.6,73.6,29.92,South,184,7.2,7.6,94,0.00,,CLR,0.00,VWS V14.01,2014-07-26 05:13:00,
2014-07-26 00:18:00,75.6,73.6,29.92,SSW,196,4.4,7.6,94,0.00,,CLR,0.00,VWS V14.01,2014-07-26 05:18:00,
2014-07-26 00:23:00,75.6,73.6,29.92,WSW,240,3.3,7.0,94,0.00,,CLR,0.00,VWS V14.01,2014-07-26 05:23:00,
2014-07-26 00:28:00,75.4,73.9,29.92,SSW,209,5.0,7.0,95,0.00,,CLR,0.00,VWS V14.01,2014-07-26 05:28:00,
2014-07-26 00:33:00,75.2,73.7,29.92,WSW,251,3.3,11.3,95,0.00,,CLR,0.00,VWS V14.01,2014-07-26 05:33:00,
2014-07-26 00:38:00,75.2,73.7,29.92,WSW,240,0.0,5.2,95,0.00,,CLR,0.00,VWS V14.01,2014-07-26 05:38:00,
2014-07-26 00:43:00,75.0,73.9,29.92,SSW,208,3.9,7.6,96,0.00,,CLR,0.00,VWS V14.01,2014-07-26 05:43:00,
2014-07-26 00:48:00,74.8,73.7,29.92,SW,230,6.7,10.5,96,0.00,,CLR,0.00,VWS V14.01,2014-07-26 05:48:00,
2014-07-26 00:53:00,74.8,74.1,29.92,SW,222,6.1,7.6,98,0.00,,CLR,0.00,VWS V14.01,2014-07-26 05:53:00,
2014-07-26 00:58:00,74.8,74.1,29.92,SSW,195,3.9,7.0,98,0.00,,CLR,0.00,VWS V14.01,2014-07-26 05:58:00,
2014-07-26 01:03:00,74.7,74.0,29.92,South,185,4.4,7.0,98,0.00,,CLR,0.00,VWS V14.01,2014-07-26 06:03:00,
2014-07-26 01:08:00,74.5,73.8,29.92,SW,223,0.0,6.4,98,0.00,,CLR,0.00,VWS V14.01,2014-07-26 06:08:00,
2014-07-26 01:13:00,74.5,73.8,29.92,SW,214,3.9,7.6,98,0.00,,CLR,0.00,VWS V14.01,2014-07-26 06:13:00,
2014-07-26 01:18:00,74.3,74.0,29.92,SW,222,3.9,5.8,99,0.00,,CLR,0.00,VWS V14.01,2014-07-26 06:18:00,
2014-07-26 01:23:00,74.3,74.0,29.92,South,183,5.0,7.6,99,0.00,,CLR,0.00,VWS V14.01,2014-07-26 06:23:00,
2014-07-26 01:28:00,74.1,73.8,29.92,SW,231,4.4,7.0,99,0.00,,CLR,0.00,VWS V14.01,2014-07-26 06:28:00,
2014-07-26 01:33:00,74.1,74.1,29.92,SSW,199,6.1,6.4,100,0.00,,CLR,0.00,VWS V14.01,2014-07-26 06:33:00,
2014-07-26 01:39:00,74.1,74.1,29.92,SSW,204,6.7,7.0,100,0.00,,CLR,0.00,VWS V14.01,2014-07-26 06:39:00,
2014-07-26 01:44:00,73.9,73.9,29.92,SW,223,3.9,10.5,100,0.00,,CLR,0.00,VWS V14.01,2014-07-26 06:44:00,
2014-07-26 01:49:00,73.9,73.9,29.92,SW,228,4.4,7.6,100,0.00,,CLR,0.00,VWS V14.01,2014-07-26 06:49:00,
2014-07-26 01:54:00,73.9,73.9,29.92,SW,224,3.3,7.6,100,0.00,,CLR,0.00,VWS V14.01,2014-07-26 06:54:00,
2014-07-26 01:59:00,73.9,73.9,29.92,WSW,239,4.4,8.1,100,0.00,,CLR,0.00,VWS V14.01,2014-07-26 06:59:00,
2014-07-26 02:04:00,73.9,73.9,29.92,SSW,207,6.7,7.0,100,0.00,,CLR,0.00,VWS V14.01,2014-07-26 07:04:00,
2014-07-26 02:09:00,73.8,73.8,29.92,SW,223,3.9,7.6,100,0.00,,CLR,0.00,VWS V14.01,2014-07-26 07:09:00,
2014-07-26 02:14:00,73.8,73.8,29.89,West,264,3.3,5.2,100,0.00,,CLR,0.00,VWS V14.01,2014-07-26 07:14:00,
2014-07-26 02:19:00,73.6,73.6,29.89,SW,217,5.0,5.2,100,0.00,,CLR,0.00,VWS V14.01,2014-07-26 07:19:00,
2014-07-26 02:24:00,73.6,73.6,29.89,West,276,0.0,7.6,100,0.00,,CLR,0.00,VWS V14.01,2014-07-26 07:24:00,
2014-07-26 02:29:00,73.4,73.4,29.89,SW,217,6.7,7.0,100,0.00,,CLR,0.00,VWS V14.01,2014-07-26 07:29:00,
2014-07-26 02:34:00,73.4,73.4,29.89,SSW,202,3.9,7.6,100,0.00,,CLR,0.00,VWS V14.01,2014-07-26 07:34:00,
2014-07-26 02:39:00,73.6,73.6,29.89,South,189,3.3,8.1,100,0.00,,CLR,0.00,VWS V14.01,2014-07-26 07:39:00,
2014-07-26 02:44:00,73.8,73.8,29.89,SW,227,3.3,6.4,100,0.00,,CLR,0.00,VWS V14.01,2014-07-26 07:44:00,
2014-07-26 02:49:00,73.8,73.8,29.89,South,183,6.1,8.1,100,0.00,,CLR,0.00,VWS V14.01,2014-07-26 07:49:00,
2014-07-26 02:54:00,73.8,73.8,29.89,WSW,251,4.4,10.5,100,0.00,,CLR,0.00,VWS V14.01,2014-07-26 07:54:00,
2014-07-26 02:59:00,73.8,73.8,29.89,SSE,147,3.3,10.8,100,0.00,,CLR,0.00,VWS V14.01,2014-07-26 07:59:00,
2014-07-26 03:04:00,73.8,73.8,29.89,SW,223,5.0,8.1,100,0.00,,CLR,0.00,VWS V14.01,2014-07-26 08:04:00,
2014-07-26 03:09:00,73.6,73.6,29.89,SSW,193,5.0,9.9,100,0.00,,CLR,0.00,VWS V14.01,2014-07-26 08:09:00,
2014-07-26 03:14:00,73.6,73.6,29.89,SSW,197,2.8,6.4,100,0.00,,CLR,0.00,VWS V14.01,2014-07-26 08:14:00,
2014-07-26 03:19:00,73.6,73.6,29.89,SSW,207,6.7,7.0,100,0.00,,CLR,0.00,VWS V14.01,2014-07-26 08:19:00,
2014-07-26 03:24:00,73.6,73.6,29.89,SW,220,4.4,5.2,100,0.00,,CLR,0.00,VWS V14.01,2014-07-26 08:24:00,
2014-07-26 03:30:00,73.4,73.4,29.89,South,181,3.9,8.1,100,0.00,,CLR,0.00,VWS V14.01,2014-07-26 08:30:00,
2014-07-26 03:35:00,73.4,73.4,29.89,SW,216,4.4,7.6,100,0.00,,CLR,0.00,VWS V14.01,2014-07-26 08:35:00,
2014-07-26 03:40:00,73.4,73.4,29.89,SW,222,6.7,7.0,100,0.00,,CLR,0.00,VWS V14.01,2014-07-26 08:40:00,
2014-07-26 03:45:00,73.2,73.2,29.89,SSW,193,3.9,6.4,100,0.00,,CLR,0.00,VWS V14.01,2014-07-26 08:45:00,
2014-07-26 03:50:00,73.2,73.2,29.89,WSW,241,3.3,6.4,100,0.00,,CLR,0.00,VWS V14.01,2014-07-26 08:50:00,
2014-07-26 03:55:00,73.2,73.2,29.92,SSW,196,0.0,3.5,100,0.00,,CLR,0.00,VWS V14.01,2014-07-26 08:55:00,
2014-07-26 04:00:00,73.0,73.1,29.92,SSW,196,2.8,4.7,100,0.00,,CLR,0.00,VWS V14.01,2014-07-26 09:00:00,
2014-07-26 04:05:00,72.9,72.9,29.92,South,181,0.0,5.2,100,0.00,,CLR,0.00,VWS V14.01,2014-07-26 09:05:00,
2014-07-26 04:10:00,72.9,72.9,29.92,South,187,3.3,5.2,100,0.00,,CLR,0.00,VWS V14.01,2014-07-26 09:10:00,
2014-07-26 04:15:00,72.9,72.9,29.92,SSW,201,0.0,3.5,100,0.00,,CLR,0.00,VWS V14.01,2014-07-26 09:15:00,
2014-07-26 04:20:00,72.7,72.7,29.92,West,260,0.0,5.2,100,0.00,,CLR,0.00,VWS V14.01,2014-07-26 09:20:00,
2014-07-26 04:25:00,72.7,72.7,29.92,SW,225,5.0,5.2,100,0.00,,CLR,0.00,VWS V14.01,2014-07-26 09:25:00,
2014-07-26 04:30:00,72.7,72.7,29.92,SW,227,3.9,4.7,100,0.00,,CLR,0.00,VWS V14.01,2014-07-26 09:30:00,
2014-07-26 04:35:00,72.5,72.5,29.92,SW,214,0.0,5.2,100,0.00,,CLR,0.00,VWS V14.01,2014-07-26 09:35:00,
2014-07-26 04:40:00,72.5,72.5,29.92,WSW,237,5.0,5.2,100,0.00,,CLR,0.00,VWS V14.01,2014-07-26 09:40:00,
2014-07-26 04:45:00,72.5,72.5,29.92,WSW,245,3.3,7.6,100,0.00,,CLR,0.00,VWS V14.01,2014-07-26 09:45:00,
2014-07-26 04:50:00,72.5,72.5,29.92,SSE,158,2.8,7.6,100,0.00,,CLR,0.00,VWS V14.01,2014-07-26 09:50:00,
2014-07-26 04:55:00,72.5,72.5,29.92,SW,221,0.0,5.2,100,0.00,,CLR,0.00,VWS V14.01,2014-07-26 09:55:00,
2014-07-26 05:00:00,72.5,72.5,29.92,SSW,203,0.0,4.7,100,0.00,,CLR,0.00,VWS V14.01,2014-07-26 10:00:00,
2014-07-26 05:05:00,72.5,72.5,29.92,WSW,237,5.0,7.0,100,0.00,,CLR,0.00,VWS V14.01,2014-07-26 10:05:00,
2014-07-26 05:10:00,72.7,72.7,29.92,SW,218,4.4,7.0,100,0.00,,CLR,0.00,VWS V14.01,2014-07-26 10:10:00,
2014-07-26 05:15:00,72.7,72.7,29.92,SSW,210,5.0,7.6,100,0.00,,CLR,0.00,VWS V14.01,2014-07-26 10:15:00,
2014-07-26 05:20:00,72.7,72.7,29.92,SSW,200,3.3,7.6,100,0.00,,CLR,0.00,VWS V14.01,2014-07-26 10:20:00,
2014-07-26 05:25:00,72.7,72.7,29.92,SW,230,5.5,5.8,100,0.00,,CLR,0.00,VWS V14.01,2014-07-26 10:25:00,
2014-07-26 05:30:00,72.7,72.7,29.92,SSW,207,5.0,5.2,100,0.00,,CLR,0.00,VWS V14.01,2014-07-26 10:30:00,
2014-07-26 05:35:00,72.7,72.7,29.92,South,191,5.0,6.4,100,0.00,,CLR,0.00,VWS V14.01,2014-07-26 10:35:00,
2014-07-26 05:40:00,72.7,72.7,29.92,SW,217,3.3,6.4,100,0.00,,CLR,0.00,VWS V14.01,2014-07-26 10:40:00,
2014-07-26 05:45:00,72.7,72.7,29.92,SW,229,3.9,7.0,100,0.00,,CLR,0.00,VWS V14.01,2014-07-26 10:45:00,
2014-07-26 05:50:00,72.7,72.7,29.92,SW,230,3.9,7.0,100,0.00,,CLR,0.00,VWS V14.01,2014-07-26 10:50:00,
2014-07-26 05:55:00,72.7,72.7,29.92,SW,219,4.4,5.2,100,0.00,,CLR,0.00,VWS V14.01,2014-07-26 10:55:00,
2014-07-26 06:00:00,72.5,72.5,29.92,SSW,206,3.3,5.2,100,0.00,,CLR,0.00,VWS V14.01,2014-07-26 11:00:00,
2014-07-26 06:06:00,72.5,72.5,29.92,SW,217,6.7,8.7,100,0.00,,CLR,0.00,VWS V14.01,2014-07-26 11:06:00,
2014-07-26 06:11:00,72.5,72.5,29.95,SW,234,3.3,7.0,100,0.00,,CLR,0.00,VWS V14.01,2014-07-26 11:11:00,
2014-07-26 06:16:00,72.5,72.5,29.95,SW,217,4.4,5.8,100,0.00,,CLR,0.00,VWS V14.01,2014-07-26 11:16:00,
2014-07-26 06:21:00,72.5,72.5,29.95,SW,227,4.4,5.2,100,0.00,,CLR,0.00,VWS V14.01,2014-07-26 11:21:00,
2014-07-26 06:26:00,72.5,72.5,29.95,WSW,241,6.1,7.0,100,0.00,,CLR,0.00,VWS V14.01,2014-07-26 11:26:00,
2014-07-26 06:31:00,72.5,72.5,29.95,South,191,4.4,7.0,100,0.00,,CLR,0.00,VWS V14.01,2014-07-26 11:31:00,
2014-07-26 06:36:00,72.5,72.5,29.95,South,185,4.4,7.0,100,0.00,,CLR,0.00,VWS V14.01,2014-07-26 11:36:00,
2014-07-26 06:41:00,72.3,72.3,29.95,SW,214,3.9,7.6,100,0.00,,CLR,0.00,VWS V14.01,2014-07-26 11:41:00,
2014-07-26 06:46:00,72.3,72.3,29.95,SSW,207,4.4,4.7,100,0.00,,CLR,0.00,VWS V14.01,2014-07-26 11:46:00,
2014-07-26 06:51:00,72.3,72.3,29.95,SW,218,3.3,8.1,100,0.00,,CLR,0.00,VWS V14.01,2014-07-26 11:51:00,
2014-07-26 06:56:00,72.5,72.5,29.95,South,169,0.0,7.0,100,0.00,,CLR,0.00,VWS V14.01,2014-07-26 11:56:00,
2014-07-26 07:01:00,72.5,72.5,29.95,SW,219,6.1,8.1,100,0.00,,CLR,0.00,VWS V14.01,2014-07-26 12:01:00,
2014-07-26 07:06:00,72.7,72.7,29.95,SSW,202,4.4,6.4,100,0.00,,CLR,0.00,VWS V14.01,2014-07-26 12:06:00,
2014-07-26 07:11:00,72.7,72.7,29.95,SSW,207,0.0,6.4,100,0.00,,CLR,0.00,VWS V14.01,2014-07-26 12:11:00,
2014-07-26 07:16:00,72.9,72.9,29.95,SW,229,3.9,4.1,100,0.00,,CLR,0.00,VWS V14.01,2014-07-26 12:16:00,
2014-07-26 07:21:00,73.2,73.2,29.95,SSW,203,3.3,8.1,100,0.00,,CLR,0.00,VWS V14.01,2014-07-26 12:21:00,
2014-07-26 07:26:00,73.8,73.8,29.95,WSW,238,6.7,7.6,100,0.00,,CLR,0.00,VWS V14.01,2014-07-26 12:26:00,
2014-07-26 07:31:00,74.1,74.1,29.95,SW,215,6.7,10.8,100,0.00,,CLR,0.00,VWS V14.01,2014-07-26 12:31:00,
2014-07-26 07:36:00,74.5,74.5,29.95,South,184,6.1,9.9,100,0.00,,CLR,0.00,VWS V14.01,2014-07-26 12:36:00,
2014-07-26 07:41:00,74.8,74.8,29.95,WSW,245,7.8,9.9,100,0.00,,CLR,0.00,VWS V14.01,2014-07-26 12:41:00,
2014-07-26 07:46:00,75.2,75.2,29.95,WSW,258,6.7,10.5,100,0.00,,CLR,0.00,VWS V14.01,2014-07-26 12:46:00,
2014-07-26 07:52:00,75.6,75.6,29.95,SSW,207,6.1,9.9,100,0.00,,CLR,0.00,VWS V14.01,2014-07-26 12:52:00,
2014-07-26 07:57:00,75.7,75.8,29.95,West,263,4.4,10.5,100,0.00,,CLR,0.00,VWS V14.01,2014-07-26 12:57:00,
2014-07-26 08:02:00,75.9,75.9,29.95,SW,227,10.0,13.7,100,0.00,,CLR,0.00,VWS V14.01,2014-07-26 13:02:00,
2014-07-26 08:07:00,76.1,76.1,29.95,SSW,208,10.8,14.2,100,0.00,,CLR,0.00,VWS V14.01,2014-07-26 13:07:00,
2014-07-26 08:12:00,76.3,76.3,29.95,SSW,210,7.8,13.1,100,0.00,,CLR,0.00,VWS V14.01,2014-07-26 13:12:00,
2014-07-26 08:17:00,76.6,76.7,29.95,SSW,213,8.9,9.9,100,0.00,,CLR,0.00,VWS V14.01,2014-07-26 13:17:00,
2014-07-26 08:22:00,77.2,77.2,29.95,SSW,201,7.8,16.0,100,0.00,,CLR,0.00,VWS V14.01,2014-07-26 13:22:00,
2014-07-26 08:27:00,77.5,77.6,29.95,SSW,210,7.8,13.1,100,0.00,,CLR,0.00,VWS V14.01,2014-07-26 13:27:00,
2014-07-26 08:32:00,78.1,78.1,29.95,SSW,192,7.8,14.2,100,0.00,,CLR,0.00,VWS V14.01,2014-07-26 13:32:00,
2014-07-26 08:37:00,78.4,78.4,29.95,WSW,243,10.8,18.9,100,0.00,,CLR,0.00,VWS V14.01,2014-07-26 13:37:00,
2014-07-26 08:42:00,78.8,78.8,29.95,SW,227,6.7,17.2,100,0.00,,CLR,0.00,VWS V14.01,2014-07-26 13:42:00,
2014-07-26 08:47:00,79.2,78.9,29.95,WSW,256,8.3,16.0,99,0.00,,CLR,0.00,VWS V14.01,2014-07-26 13:47:00,
2014-07-26 08:52:00,79.5,78.4,29.95,WSW,241,13.6,16.6,96,0.00,,CLR,0.00,VWS V14.01,2014-07-26 13:52:00,
2014-07-26 08:57:00,79.9,78.3,29.95,WSW,244,19.1,20.1,95,0.00,,CLR,0.00,VWS V14.01,2014-07-26 13:57:00,
2014-07-26 09:02:00,80.1,77.2,29.95,SW,233,13.6,18.3,91,0.00,,CLR,0.00,VWS V14.01,2014-07-26 14:02:00,
2014-07-26 09:07:00,80.4,77.1,29.95,SW,233,18.6,19.5,90,0.00,,CLR,0.00,VWS V14.01,2014-07-26 14:07:00,
2014-07-26 09:12:00,80.6,76.4,29.98,SSW,199,9.4,21.8,87,0.00,,CLR,0.00,VWS V14.01,2014-07-26 14:12:00,
2014-07-26 09:17:00,81.0,76.3,29.98,WSW,240,17.5,18.9,86,0.00,,CLR,0.00,VWS V14.01,2014-07-26 14:17:00,
2014-07-26 09:22:00,81.3,75.2,29.98,SW,233,16.9,17.7,82,0.00,,CLR,0.00,VWS V14.01,2014-07-26 14:22:00,
2014-07-26 09:27:00,81.7,76.1,29.98,WSW,252,15.3,18.9,83,0.00,,CLR,0.00,VWS V14.01,2014-07-26 14:27:00,
2014-07-26 09:32:00,82.0,76.4,29.98,SW,216,21.6,22.7,83,0.00,,CLR,0.00,VWS V14.01,2014-07-26 14:32:00,
2014-07-26 09:37:00,82.2,76.1,29.98,West,262,15.3,20.1,82,0.00,,CLR,0.00,VWS V14.01,2014-07-26 14:37:00,
2014-07-26 09:42:00,82.2,75.1,29.98,West,279,13.6,19.5,79,0.00,,CLR,0.00,VWS V14.01,2014-07-26 14:42:00,
2014-07-26 09:47:00,82.4,75.3,29.98,WSW,258,13.6,16.0,79,0.00,,CLR,0.00,VWS V14.01,2014-07-26 14:47:00,
2014-07-26 09:52:00,82.6,75.0,29.98,WSW,253,13.0,17.2,78,0.00,,CLR,0.00,VWS V14.01,2014-07-26 14:52:00,
2014-07-26 09:57:00,82.8,75.2,29.95,West,259,15.3,18.3,78,0.00,,CLR,0.00,VWS V14.01,2014-07-26 14:57:00,
2014-07-26 10:02:00,83.1,75.5,29.95,SW,220,16.4,20.1,78,0.00,,CLR,0.00,VWS V14.01,2014-07-26 15:02:00,
2014-07-26 10:08:00,83.3,75.2,29.95,WSW,240,15.3,19.5,77,0.00,,CLR,0.00,VWS V14.01,2014-07-26 15:08:00,
2014-07-26 10:13:00,83.7,75.5,29.98,WNW,284,10.8,19.5,77,0.00,,CLR,0.00,VWS V14.01,2014-07-26 15:13:00,
2014-07-26 10:18:00,84.0,75.9,29.98,West,271,13.0,17.2,77,0.00,,CLR,0.00,VWS V14.01,2014-07-26 15:18:00,
2014-07-26 10:23:00,84.4,75.2,29.98,SSW,208,10.8,17.2,74,0.00,,CLR,0.00,VWS V14.01,2014-07-26 15:23:00,
2014-07-26 10:28:00,84.6,75.3,29.98,SW,228,10.8,14.2,74,0.00,,CLR,0.00,VWS V14.01,2014-07-26 15:28:00,
2014-07-26 10:33:00,84.7,75.0,29.98,West,264,13.6,16.0,73,0.00,,CLR,0.00,VWS V14.01,2014-07-26 15:33:00,
2014-07-26 10:38:00,85.1,75.3,29.98,SW,217,8.3,16.0,73,0.00,,CLR,0.00,VWS V14.01,2014-07-26 15:38:00,
2014-07-26 10:43:00,85.3,74.4,29.98,SSE,159,15.8,17.2,70,0.00,,CLR,0.00,VWS V14.01,2014-07-26 15:43:00,
2014-07-26 10:48:00,85.5,74.6,29.98,SW,235,11.9,14.2,70,0.00,,CLR,0.00,VWS V14.01,2014-07-26 15:48:00,
2014-07-26 10:53:00,86.0,75.1,29.98,SSW,192,10.0,13.1,70,0.00,,CLR,0.00,VWS V14.01,2014-07-26 15:53:00,
2014-07-26 10:58:00,86.2,74.1,29.95,WSW,252,10.0,17.7,67,0.00,,CLR,0.00,VWS V14.01,2014-07-26 15:58:00,
2014-07-26 11:03:00,86.2,72.9,29.95,SSW,213,6.7,16.6,65,0.00,,CLR,0.00,VWS V14.01,2014-07-26 16:03:00,
2014-07-26 11:08:00,86.5,73.8,29.95,WSW,252,8.9,16.0,66,0.00,,CLR,0.00,VWS V14.01,2014-07-26 16:08:00,
2014-07-26 11:13:00,86.7,72.8,29.98,SSW,207,10.0,18.9,63,0.00,,CLR,0.00,VWS V14.01,2014-07-26 16:13:00,
2014-07-26 11:18:00,86.9,73.6,29.98,SW,219,10.0,13.7,65,0.00,,CLR,0.00,VWS V14.01,2014-07-26 16:18:00,
2014-07-26 11:23:00,87.3,74.5,29.98,SW,234,15.3,16.6,66,0.00,,CLR,0.00,VWS V14.01,2014-07-26 16:23:00,
2014-07-26 11:28:00,87.8,74.4,29.98,SW,230,10.8,13.7,65,0.00,,CLR,0.00,VWS V14.01,2014-07-26 16:28:00,
2014-07-26 11:33:00,88.0,74.0,29.98,SW,225,10.0,14.2,63,0.00,,CLR,0.00,VWS V14.01,2014-07-26 16:33:00,
2014-07-26 11:38:00,88.3,74.3,29.98,WSW,246,10.3,17.2,63,0.00,,CLR,0.00,VWS V14.01,2014-07-26 16:38:00,
2014-07-26 11:43:00,88.3,72.4,29.95,SW,220,9.4,14.2,59,0.00,,CLR,0.00,VWS V14.01,2014-07-26 16:43:00,
2014-07-26 11:48:00,88.7,73.4,29.95,WSW,254,19.1,20.1,61,0.00,,CLR,0.00,VWS V14.01,2014-07-26 16:48:00,
2014-07-26 11:53:00,88.9,72.9,29.95,SW,221,6.7,13.7,59,0.00,,CLR,0.00,VWS V14.01,2014-07-26 16:53:00,
2014-07-26 11:58:00,88.9,71.6,29.95,SSW,207,16.4,17.2,57,0.00,,CLR,0.00,VWS V14.01,2014-07-26 16:58:00,
2014-07-26 12:03:00,89.2,72.6,29.95,SW,224,15.8,17.2,58,0.00,,CLR,0.00,VWS V14.01,2014-07-26 17:03:00,
2014-07-26 12:08:00,89.4,70.7,29.95,West,276,15.3,19.5,54,0.00,,CLR,0.00,VWS V14.01,2014-07-26 17:08:00,
2014-07-26 12:13:00,89.6,70.8,29.95,SW,234,10.3,17.2,54,0.00,,CLR,0.00,VWS V14.01,2014-07-26 17:13:00,
2014-07-26 12:18:00,90.0,71.9,29.95,SW,235,10.8,14.2,55,0.00,,CLR,0.00,VWS V14.01,2014-07-26 17:18:00,
2014-07-26 12:23:00,90.1,71.3,29.95,West,281,13.0,17.2,54,0.00,,CLR,0.00,VWS V14.01,2014-07-26 17:23:00,
2014-07-26 12:28:00,90.0,70.4,29.95,WSW,246,15.3,17.2,53,0.00,,CLR,0.00,VWS V14.01,2014-07-26 17:28:00,
2014-07-26 12:33:00,90.0,69.7,29.95,WSW,240,17.5,19.5,51,0.00,,CLR,0.00,VWS V14.01,2014-07-26 17:33:00,
2014-07-26 12:38:00,90.1,70.6,29.95,West,264,10.3,14.2,53,0.00,,CLR,0.00,VWS V14.01,2014-07-26 17:38:00,
2014-07-26 12:43:00,90.5,70.9,29.95,SW,224,12.5,17.2,53,0.00,,CLR,0.00,VWS V14.01,2014-07-26 17:43:00,
2014-07-26 12:48:00,90.7,70.4,29.95,WSW,251,11.9,21.2,51,0.00,,CLR,0.00,VWS V14.01,2014-07-26 17:48:00,
2014-07-26 12:53:00,90.9,70.5,29.95,SW,230,15.8,16.6,51,0.00,,CLR,0.00,VWS V14.01,2014-07-26 17:53:00,
2014-07-26 12:58:00,91.2,70.8,29.95,WSW,242,13.6,14.2,51,0.00,,CLR,0.00,VWS V14.01,2014-07-26 17:58:00,
2014-07-26 13:03:00,91.0,69.9,29.95,SW,222,13.0,20.1,50,0.00,,CLR,0.00,VWS V14.01,2014-07-26 18:03:00,